createdAt,value
2018-06-24T00:00:42.829Z,2.00
2018-06-24T00:03:15.251Z,1.40
2018-06-24T00:05:48.470Z,1.73
2018-06-24T00:08:20.987Z,4.33
2018-06-24T00:10:53.275Z,28.50
2018-06-24T00:13:25.432Z,4.83
2018-06-24T00:15:57.360Z,3.10
2018-06-24T00:18:29.841Z,2.03
2018-06-24T00:21:02.181Z,1.47
2018-06-24T00:23:34.624Z,2.20
2018-06-24T00:26:07.277Z,5.03
2018-06-24T00:28:39.424Z,2.67
2018-06-24T00:31:12.000Z,2.73
2018-06-24T00:33:44.448Z,2.03
2018-06-24T00:36:16.786Z,2.30
2018-06-24T00:38:49.278Z,1.47
2018-06-24T00:41:21.780Z,1.73
2018-06-24T00:43:53.962Z,2.83
2018-06-24T00:46:26.298Z,2.37
2018-06-24T00:48:58.922Z,2.60
2018-06-24T00:51:31.279Z,2.80
2018-06-24T00:54:04.237Z,2.93
2018-06-24T00:56:36.202Z,2.00
2018-06-24T00:59:09.249Z,2.47
2018-06-24T01:01:41.356Z,3.00
2018-06-24T01:04:13.938Z,1.53
2018-06-24T01:06:46.310Z,2.80
2018-06-24T01:09:18.498Z,2.30
2018-06-24T01:11:50.811Z,1.90
2018-06-24T01:14:22.727Z,2.17
2018-06-24T01:16:54.551Z,1.50
2018-06-24T01:19:27.018Z,2.37
2018-06-24T01:21:59.429Z,1.90
2018-06-24T01:24:32.007Z,3.50
2018-06-24T01:27:04.417Z,3.53
2018-06-24T01:29:36.744Z,1.60
2018-06-24T01:32:09.670Z,1.73
2018-06-24T01:34:41.911Z,1.47
2018-06-24T01:37:13.727Z,3.50
2018-06-24T01:39:45.807Z,2.67
2018-06-24T01:42:18.219Z,2.40
2018-06-24T01:44:50.707Z,1.40
2018-06-24T01:47:23.281Z,1.70
2018-06-24T01:49:55.528Z,1.87
2018-06-24T01:52:27.983Z,2.10
2018-06-24T01:54:59.823Z,2.63
2018-06-24T01:57:31.618Z,1.90
2018-06-24T02:00:04.818Z,1.53
2018-06-24T02:02:37.090Z,2.07
2018-06-24T02:05:09.640Z,2.17
2018-06-24T02:07:42.448Z,2.53
2018-06-24T02:10:14.691Z,2.77
2018-06-24T02:12:47.174Z,3.27
2018-06-24T02:15:20.720Z,3.67
2018-06-24T02:17:53.675Z,1.80
2018-06-24T02:20:26.277Z,1.70
2018-06-24T02:22:58.920Z,3.47
2018-06-24T02:25:30.168Z,4.97
2018-06-24T02:28:02.530Z,2.33
2018-06-24T02:30:34.364Z,5.43
2018-06-24T02:33:06.652Z,2.00
2018-06-24T02:35:39.367Z,2.23
2018-06-24T02:38:12.310Z,2.83
2018-06-24T02:40:44.699Z,4.53
2018-06-24T02:43:17.240Z,2.23
2018-06-24T02:45:49.479Z,2.77
2018-06-24T02:48:21.379Z,2.10
2018-06-24T02:50:53.266Z,3.20
2018-06-24T02:53:25.797Z,2.60
2018-06-24T02:55:58.182Z,3.40
2018-06-24T02:58:30.443Z,4.90
2018-06-24T03:01:06.396Z,2.30
2018-06-24T03:03:38.229Z,2.80
2018-06-24T03:06:10.493Z,2.10
2018-06-24T03:08:42.828Z,4.23
2018-06-24T03:11:14.226Z,2.57
2018-06-24T03:13:47.755Z,1.90
2018-06-24T03:16:21.159Z,2.90
2018-06-24T03:18:54.299Z,2.37
2018-06-24T03:21:26.818Z,3.83
2018-06-24T03:23:59.307Z,2.33
2018-06-24T03:26:31.844Z,1.90
2018-06-24T03:29:04.263Z,3.20
2018-06-24T03:31:37.334Z,3.20
2018-06-24T03:34:09.407Z,3.10
2018-06-24T03:36:41.532Z,2.40
2018-06-24T03:39:14.051Z,2.10
2018-06-24T03:41:46.788Z,3.17
2018-06-24T03:44:19.440Z,2.30
2018-06-24T03:46:51.994Z,2.67
2018-06-24T03:49:23.562Z,4.10
2018-06-24T03:51:56.034Z,2.00
2018-06-24T03:54:28.471Z,5.07
2018-06-24T03:57:01.260Z,3.07
2018-06-24T03:59:33.946Z,3.20
2018-06-24T04:02:06.499Z,2.10
2018-06-24T04:04:39.111Z,3.30
2018-06-24T04:07:11.960Z,2.60
2018-06-24T04:09:44.294Z,2.70
2018-06-24T04:12:16.653Z,5.70
2018-06-24T04:14:50.636Z,7.60
2018-06-24T04:17:24.146Z,2.30
2018-06-24T04:19:56.558Z,2.10
2018-06-24T04:22:28.952Z,2.60
2018-06-24T04:25:01.435Z,2.80
2018-06-24T04:27:33.997Z,2.13
2018-06-24T04:30:06.642Z,2.23
2018-06-24T04:32:39.779Z,3.10
2018-06-24T04:35:12.259Z,2.97
2018-06-24T04:37:44.814Z,3.57
2018-06-24T04:40:17.218Z,2.37
2018-06-24T04:42:49.810Z,3.17
2018-06-24T04:45:22.019Z,3.10
2018-06-24T04:47:54.608Z,2.83
2018-06-24T04:50:26.598Z,2.90
2018-06-24T04:52:58.795Z,3.10
2018-06-24T04:55:31.992Z,3.27
2018-06-24T04:58:04.493Z,4.00
2018-06-24T05:00:37.189Z,2.90
2018-06-24T05:03:10.091Z,2.33
2018-06-24T05:05:42.034Z,4.10
2018-06-24T05:08:14.000Z,3.17
2018-06-24T05:10:46.408Z,5.70
2018-06-24T05:13:19.008Z,3.23
2018-06-24T05:15:52.108Z,3.30
2018-06-24T05:18:27.547Z,3.47
2018-06-24T05:21:00.318Z,2.57
2018-06-24T05:23:32.711Z,3.00
2018-06-24T05:26:05.196Z,3.30
2018-06-24T05:28:38.585Z,1.80
2018-06-24T05:31:10.799Z,3.63
2018-06-24T05:33:42.080Z,3.43
2018-06-24T05:36:14.506Z,2.30
2018-06-24T05:38:47.040Z,2.40
2018-06-24T05:41:19.507Z,9.00
2018-06-24T05:43:52.104Z,2.70
2018-06-24T05:46:24.664Z,2.50
2018-06-24T05:48:56.860Z,2.43
2018-06-24T05:51:29.616Z,2.47
2018-06-24T05:54:02.096Z,2.57
2018-06-24T05:56:34.543Z,7.10
2018-06-24T05:59:06.719Z,2.80
2018-06-24T06:01:38.954Z,2.23
2018-06-24T06:04:11.835Z,2.93
2018-06-24T06:06:43.089Z,3.57
2018-06-24T06:09:15.614Z,2.20
2018-06-24T06:11:48.072Z,4.10
2018-06-24T06:14:20.392Z,2.23
2018-06-24T06:16:52.428Z,2.20
2018-06-24T06:19:25.039Z,2.90
2018-06-24T06:21:57.334Z,2.30
2018-06-24T06:24:29.735Z,2.27
2018-06-24T06:27:01.987Z,3.57
2018-06-24T06:29:34.299Z,3.30
2018-06-24T06:32:06.730Z,3.47
2018-06-24T06:34:39.122Z,2.97
2018-06-24T06:37:13.283Z,2.20
2018-06-24T06:39:47.030Z,2.30
2018-06-24T06:42:19.424Z,3.20
2018-06-24T06:44:51.800Z,5.30
2018-06-24T06:47:24.235Z,2.57
2018-06-24T06:49:56.819Z,3.53
2018-06-24T06:52:29.275Z,4.53
2018-06-24T06:55:01.832Z,2.57
2018-06-24T06:57:34.881Z,2.50
2018-06-24T07:00:07.639Z,3.70
2018-06-24T07:02:40.120Z,3.43
2018-06-24T07:05:12.887Z,4.33
2018-06-24T07:07:45.339Z,4.30
2018-06-24T07:10:17.617Z,3.13
2018-06-24T07:12:50.263Z,3.40
2018-06-24T07:15:22.827Z,3.73
2018-06-24T07:17:55.179Z,3.20
2018-06-24T07:20:27.817Z,3.97
2018-06-24T07:23:00.581Z,3.70
2018-06-24T07:25:33.156Z,3.47
2018-06-24T07:28:05.802Z,3.50
2018-06-24T07:30:38.237Z,4.40
2018-06-24T07:33:10.404Z,4.07
2018-06-24T07:35:43.162Z,4.37
2018-06-24T07:38:15.681Z,4.97
2018-06-24T07:40:47.989Z,4.30
2018-06-24T07:43:20.171Z,4.70
2018-06-24T07:45:52.769Z,4.20
2018-06-24T07:48:25.190Z,5.60
2018-06-24T07:50:57.498Z,3.10
2018-06-24T07:53:29.784Z,4.80
2018-06-24T07:56:02.113Z,3.47
2018-06-24T07:58:34.477Z,4.60
2018-06-24T08:01:06.879Z,4.63
2018-06-24T08:03:39.247Z,3.87
2018-06-24T08:06:12.384Z,3.63
2018-06-24T08:08:44.714Z,4.63
2018-06-24T08:11:17.418Z,4.10
2018-06-24T08:13:49.750Z,3.13
2018-06-24T08:16:22.642Z,4.67
2018-06-24T08:18:55.254Z,4.97
2018-06-24T08:21:28.216Z,6.07
2018-06-24T08:24:00.799Z,7.80
2018-06-24T08:26:33.599Z,4.20
2018-06-24T08:29:06.011Z,4.10
2018-06-24T08:31:38.676Z,3.80
2018-06-24T08:34:10.072Z,8.80
2018-06-24T08:36:42.659Z,4.60
2018-06-24T08:39:14.952Z,4.00
2018-06-24T08:41:47.533Z,3.70
2018-06-24T08:44:19.796Z,4.90
2018-06-24T08:46:52.068Z,4.00
2018-06-24T08:49:24.407Z,4.20
2018-06-24T08:51:57.730Z,3.60
2018-06-24T08:54:30.711Z,4.17
2018-06-24T08:57:03.195Z,5.53
2018-06-24T08:59:35.640Z,4.50
2018-06-24T09:02:07.943Z,3.87
2018-06-24T09:04:40.490Z,4.20
2018-06-24T09:07:13.374Z,7.33
2018-06-24T09:09:46.215Z,6.20
2018-06-24T09:12:18.540Z,4.10
2018-06-24T09:14:50.973Z,4.77
2018-06-24T09:17:23.046Z,7.80
2018-06-24T09:19:55.360Z,3.80
2018-06-24T09:22:27.695Z,6.37
2018-06-24T09:25:00.205Z,5.23
2018-06-24T09:27:33.526Z,5.60
2018-06-24T09:30:08.015Z,4.97
2018-06-24T09:32:40.406Z,5.30
2018-06-24T09:35:13.400Z,5.43
2018-06-24T09:37:45.544Z,8.27
2018-06-24T09:40:18.248Z,4.93
2018-06-24T09:42:50.258Z,4.80
2018-06-24T09:45:22.699Z,5.17
2018-06-24T09:47:55.075Z,6.23
2018-06-24T09:50:27.889Z,4.80
2018-06-24T09:53:00.617Z,6.50
2018-06-24T09:55:33.635Z,6.57
2018-06-24T09:58:06.465Z,5.30
2018-06-24T10:00:38.710Z,8.73
2018-06-24T10:03:10.892Z,6.93
2018-06-24T10:05:43.320Z,5.17
2018-06-24T10:08:16.228Z,5.40
2018-06-24T10:10:48.629Z,7.57
2018-06-24T10:13:21.062Z,6.30
2018-06-24T10:15:53.847Z,6.43
2018-06-24T10:18:26.320Z,7.37
2018-06-24T10:20:58.714Z,8.53
2018-06-24T10:23:30.908Z,6.37
2018-06-24T10:26:04.357Z,6.27
2018-06-24T10:28:36.558Z,6.63
2018-06-24T10:31:09.149Z,9.97
2018-06-24T10:33:41.492Z,8.63
2018-06-24T10:36:14.875Z,6.90
2018-06-24T10:38:47.443Z,7.57
2018-06-24T10:41:20.625Z,8.83
2018-06-24T10:43:54.386Z,7.47
2018-06-24T10:46:26.713Z,6.30
2018-06-24T10:48:58.893Z,6.20
2018-06-24T10:51:31.394Z,7.70
2018-06-24T10:54:03.767Z,8.70
2018-06-24T10:56:34.913Z,6.00
2018-06-24T10:59:06.210Z,6.23
2018-06-24T11:01:38.620Z,6.97
2018-06-24T11:04:10.972Z,6.43
2018-06-24T11:06:43.542Z,9.17
2018-06-24T11:09:16.099Z,6.00
2018-06-24T11:11:49.007Z,13.60
2018-06-24T11:14:21.342Z,8.67
2018-06-24T11:16:54.093Z,8.50
2018-06-24T11:19:26.462Z,6.70
2018-06-24T11:21:59.174Z,9.40
2018-06-24T11:24:31.799Z,10.70
2018-06-24T11:27:04.062Z,11.43
2018-06-24T11:29:36.247Z,9.00
2018-06-24T11:32:09.114Z,7.50
2018-06-24T11:34:41.413Z,12.00
2018-06-24T11:37:13.969Z,7.70
2018-06-24T11:39:46.553Z,6.90
2018-06-24T11:42:19.169Z,9.27
2018-06-24T11:44:51.290Z,10.40
2018-06-24T11:47:24.056Z,11.50
2018-06-24T11:49:56.424Z,7.30
2018-06-24T11:52:29.225Z,7.13
2018-06-24T11:55:01.711Z,9.30
2018-06-24T11:57:34.343Z,9.80
2018-06-24T12:00:07.320Z,6.87
2018-06-24T12:02:39.755Z,8.43
2018-06-24T12:05:12.076Z,10.60
2018-06-24T12:07:44.508Z,8.67
2018-06-24T12:10:17.488Z,10.10
2018-06-24T12:12:49.854Z,9.00
2018-06-24T12:15:24.049Z,7.20
2018-06-24T12:17:56.449Z,7.77
2018-06-24T12:20:28.795Z,8.37
2018-06-24T12:23:01.016Z,9.20
2018-06-24T12:25:33.923Z,11.90
2018-06-24T12:28:06.529Z,9.50
2018-06-24T12:30:39.052Z,8.53
2018-06-24T12:33:11.966Z,9.50
2018-06-24T12:35:49.175Z,9.13
2018-06-24T12:38:21.534Z,10.93
2018-06-24T12:40:53.839Z,7.30
2018-06-24T12:43:26.250Z,8.97
2018-06-24T12:45:58.856Z,14.10
2018-06-24T12:48:31.210Z,9.83
2018-06-24T12:51:03.585Z,8.43
2018-06-24T12:53:35.900Z,10.80
2018-06-24T12:56:08.420Z,7.80
2018-06-24T12:58:40.950Z,8.50
2018-06-24T13:01:13.328Z,8.30
2018-06-24T13:03:45.410Z,9.40
2018-06-24T13:06:17.835Z,8.63
2018-06-24T13:08:50.371Z,10.03
2018-06-24T13:11:23.280Z,12.03
2018-06-24T13:13:54.483Z,9.30
2018-06-24T13:16:26.895Z,8.57
2018-06-24T13:18:59.242Z,8.33
2018-06-24T13:21:31.780Z,10.40
2018-06-24T13:24:04.232Z,9.03
2018-06-24T13:26:36.673Z,8.80
2018-06-24T13:29:09.118Z,12.20
2018-06-24T13:31:41.436Z,13.13
2018-06-24T13:34:13.825Z,11.93
2018-06-24T13:36:46.869Z,9.97
2018-06-24T13:39:20.733Z,13.93
2018-06-24T13:41:54.915Z,11.00
2018-06-24T13:44:26.201Z,12.47
2018-06-24T13:46:58.509Z,16.03
2018-06-24T13:49:30.766Z,11.93
2018-06-24T13:52:03.473Z,10.17
2018-06-24T13:54:35.875Z,10.80
2018-06-24T13:57:08.232Z,12.73
2018-06-24T13:59:40.643Z,16.40
2018-06-24T14:02:13.048Z,11.50
2018-06-24T14:04:45.595Z,10.23
2018-06-24T14:07:20.670Z,10.67
2018-06-24T14:09:53.011Z,10.47
2018-06-24T14:12:25.491Z,13.47
2018-06-24T14:14:57.741Z,11.80
2018-06-24T14:17:30.720Z,11.73
2018-06-24T14:20:03.910Z,14.67
2018-06-24T14:22:37.106Z,12.37
2018-06-24T14:25:10.835Z,10.50
2018-06-24T14:27:43.325Z,9.93
2018-06-24T14:32:52.351Z,11.30
2018-06-24T14:35:24.777Z,9.10
2018-06-24T14:37:57.067Z,10.43
2018-06-24T14:40:29.540Z,11.00
2018-06-24T14:43:01.864Z,9.90
2018-06-24T14:45:34.254Z,11.80
2018-06-24T14:50:43.988Z,10.93
2018-06-24T14:53:16.519Z,11.83
2018-06-24T14:55:49.760Z,9.47
2018-06-24T14:58:22.266Z,9.20
2018-06-24T15:00:54.346Z,7.70
2018-06-24T15:03:27.348Z,8.87
2018-06-24T15:05:59.750Z,8.63
2018-06-24T15:08:32.009Z,9.10
2018-06-24T15:11:04.459Z,9.80
2018-06-24T15:13:37.362Z,7.33
2018-06-24T15:16:09.652Z,7.20
2018-06-24T15:18:42.274Z,5.93
2018-06-24T15:21:14.442Z,8.37
2018-06-24T15:23:46.582Z,8.73
2018-06-24T15:26:18.956Z,7.33
2018-06-24T15:28:51.710Z,12.63
2018-06-24T15:31:26.157Z,7.97
2018-06-24T15:33:59.616Z,5.70
2018-06-24T15:36:31.796Z,5.83
2018-06-24T15:39:03.663Z,8.00
2018-06-24T15:41:36.234Z,5.70
2018-06-24T15:46:47.116Z,5.73
2018-06-24T15:49:19.723Z,6.40
2018-06-24T15:51:51.865Z,7.53
2018-06-24T15:54:28.531Z,5.80
2018-06-24T15:57:01.146Z,6.63
2018-06-24T15:59:33.793Z,5.97
2018-06-24T16:02:07.197Z,6.30
2018-06-24T16:04:39.895Z,8.07
2018-06-24T16:07:12.715Z,6.47
2018-06-24T16:09:44.949Z,5.10
2018-06-24T16:12:17.481Z,6.50
2018-06-24T16:14:50.650Z,5.63
2018-06-24T16:17:23.237Z,6.40
2018-06-24T16:19:55.696Z,5.73
2018-06-24T16:22:27.875Z,5.50
2018-06-24T16:25:02.192Z,5.80
2018-06-24T16:27:34.481Z,7.43
2018-06-24T16:30:07.211Z,6.23
2018-06-24T16:32:39.405Z,6.10
2018-06-24T16:35:12.024Z,6.77
2018-06-24T16:37:44.573Z,6.80
2018-06-24T16:40:17.257Z,5.13
2018-06-24T16:42:49.863Z,5.23
2018-06-24T16:45:22.398Z,4.50
2018-06-24T16:47:54.782Z,5.47
2018-06-24T16:50:26.049Z,4.83
2018-06-24T16:53:01.780Z,4.20
2018-06-24T16:55:34.479Z,4.63
2018-06-24T16:58:06.711Z,5.30
2018-06-24T17:00:43.603Z,5.00
2018-06-24T17:03:16.175Z,5.60
2018-06-24T17:05:48.817Z,4.87
2018-06-24T17:08:20.958Z,5.80
2018-06-24T17:10:53.408Z,4.40
2018-06-24T17:13:25.676Z,4.50
2018-06-24T17:15:58.479Z,4.40
2018-06-24T17:18:30.839Z,4.57
2018-06-24T17:21:02.197Z,5.90
2018-06-24T17:23:34.525Z,6.70
2018-06-24T17:26:07.229Z,4.53
2018-06-24T17:28:39.894Z,6.00
2018-06-24T17:31:12.925Z,6.30
2018-06-24T17:33:45.319Z,5.10
2018-06-24T17:36:18.411Z,5.23
2018-06-24T17:38:50.998Z,5.47
2018-06-24T17:41:23.640Z,5.53
2018-06-24T17:43:55.971Z,5.33
2018-06-24T17:46:28.368Z,5.77
2018-06-24T17:49:00.542Z,5.70
2018-06-24T17:51:32.889Z,5.10
2018-06-24T17:54:05.359Z,6.10
2018-06-24T17:56:36.799Z,5.27
2018-06-24T17:59:09.021Z,5.30
2018-06-24T18:01:41.507Z,4.90
2018-06-24T18:04:13.900Z,5.17
2018-06-24T18:06:46.314Z,4.17
2018-06-24T18:09:19.598Z,4.10
2018-06-24T18:11:52.047Z,4.70
2018-06-24T18:17:01.132Z,4.13
2018-06-24T18:19:37.770Z,4.63
2018-06-24T18:22:10.599Z,4.10
2018-06-24T18:24:42.936Z,4.07
2018-06-24T18:27:15.875Z,4.80
2018-06-24T18:29:48.848Z,4.20
2018-06-24T18:32:21.432Z,4.00
2018-06-24T18:34:52.733Z,4.93
2018-06-24T18:37:24.260Z,4.03
2018-06-24T18:39:55.628Z,4.37
2018-06-24T18:42:28.289Z,5.03
2018-06-24T18:45:02.029Z,3.53
2018-06-24T18:47:36.604Z,3.10
2018-06-24T18:50:09.299Z,3.37
2018-06-24T18:52:41.651Z,4.10
2018-06-24T18:55:14.846Z,3.40
2018-06-24T18:57:47.099Z,3.60
2018-06-24T19:00:19.389Z,4.20
2018-06-24T19:02:53.788Z,3.90
2018-06-24T19:05:26.597Z,3.60
2018-06-24T19:07:59.309Z,3.73
2018-06-24T19:10:31.668Z,3.80
2018-06-24T19:13:03.214Z,3.60
2018-06-24T19:15:34.761Z,4.10
2018-06-24T19:18:07.816Z,3.50
2018-06-24T19:20:40.292Z,4.13
2018-06-24T19:23:12.906Z,11.63
2018-06-24T19:25:45.856Z,3.90
2018-06-24T19:28:18.760Z,4.63
2018-06-24T19:30:51.482Z,3.07
2018-06-24T19:33:23.958Z,5.70
2018-06-24T19:35:56.663Z,3.50
2018-06-24T19:38:28.886Z,4.20
2018-06-24T19:41:01.242Z,3.90
2018-06-24T19:43:33.583Z,4.00
2018-06-24T19:46:05.919Z,4.93
2018-06-24T19:48:38.246Z,4.17
2018-06-24T19:51:10.377Z,3.80
2018-06-24T19:53:42.848Z,3.40
2018-06-24T19:56:14.971Z,3.70
2018-06-24T19:58:47.279Z,3.53
2018-06-24T20:01:19.656Z,3.30
2018-06-24T20:03:52.115Z,7.30
2018-06-24T20:06:24.491Z,5.03
2018-06-24T20:08:57.535Z,3.90
2018-06-24T20:11:30.031Z,3.97
2018-06-24T20:14:02.448Z,4.40
2018-06-24T20:16:34.858Z,3.93
2018-06-24T20:19:08.109Z,7.00
2018-06-24T20:21:39.522Z,4.30
2018-06-24T20:24:12.295Z,4.30
2018-06-24T20:26:44.833Z,4.20
2018-06-24T20:29:17.567Z,4.07
2018-06-24T20:31:50.098Z,4.10
2018-06-24T20:34:22.432Z,5.27
2018-06-24T20:36:54.860Z,4.07
2018-06-24T20:39:27.402Z,4.70
2018-06-24T20:42:00.181Z,4.50
2018-06-24T20:44:32.743Z,4.80
2018-06-24T20:47:04.905Z,4.73
2018-06-24T20:49:37.466Z,6.77
2018-06-24T20:52:09.915Z,4.20
2018-06-24T20:54:42.317Z,4.00
2018-06-24T20:57:14.597Z,5.10
2018-06-24T20:59:46.819Z,4.80
2018-06-24T21:02:19.353Z,6.40
2018-06-24T21:04:51.952Z,5.63
2018-06-24T21:07:24.298Z,5.10
2018-06-24T21:09:56.690Z,5.30
2018-06-24T21:12:28.849Z,5.20
2018-06-24T21:15:01.486Z,5.20
2018-06-24T21:17:34.012Z,5.10
2018-06-24T21:20:06.751Z,9.23
2018-06-24T21:22:39.162Z,5.20
2018-06-24T21:25:11.564Z,5.53
2018-06-24T21:27:44.068Z,5.53
2018-06-24T21:30:16.692Z,5.03
2018-06-24T21:32:49.330Z,5.80
2018-06-24T21:35:21.726Z,4.87
2018-06-24T21:37:54.046Z,5.00
2018-06-24T21:40:26.894Z,4.33
2018-06-24T21:42:59.236Z,4.93
2018-06-24T21:45:31.355Z,6.43
2018-06-24T21:48:03.520Z,5.30
2018-06-24T21:50:35.825Z,10.53
2018-06-24T21:53:08.250Z,5.33
2018-06-24T21:55:40.655Z,5.27
2018-06-24T21:58:12.780Z,6.33
2018-06-24T22:00:45.180Z,7.60
2018-06-24T22:03:17.528Z,5.97
2018-06-24T22:05:49.820Z,7.20
2018-06-24T22:08:22.232Z,5.30
2018-06-24T22:10:54.343Z,5.83
2018-06-24T22:13:26.350Z,5.70
2018-06-24T22:15:58.638Z,5.67
2018-06-24T22:18:30.978Z,5.97
2018-06-24T22:21:04.395Z,6.40
2018-06-24T22:23:36.683Z,9.67
2018-06-24T22:26:09.449Z,5.43
2018-06-24T22:28:41.789Z,5.93
2018-06-24T22:31:14.195Z,5.77
2018-06-24T22:33:46.405Z,6.70
2018-06-24T22:36:19.446Z,7.00
2018-06-24T22:38:52.144Z,6.57
2018-06-24T22:41:24.779Z,6.90
2018-06-24T22:43:57.080Z,7.17
2018-06-24T22:46:29.665Z,7.07
2018-06-24T22:49:02.242Z,7.10
2018-06-24T22:51:34.653Z,7.60
2018-06-24T22:54:07.097Z,7.70
2018-06-24T22:56:39.598Z,7.97
2018-06-24T22:59:21.336Z,7.47
2018-06-24T23:01:53.800Z,6.73
2018-06-24T23:04:25.926Z,6.47
2018-06-24T23:06:58.330Z,7.10
2018-06-24T23:09:30.601Z,6.13
2018-06-24T23:12:03.399Z,6.60
2018-06-24T23:14:36.016Z,10.37
2018-06-24T23:17:08.609Z,5.83
2018-06-24T23:19:41.699Z,6.47
2018-06-24T23:22:15.109Z,6.00
2018-06-24T23:24:47.281Z,7.77
2018-06-24T23:27:19.885Z,7.93
2018-06-24T23:29:52.646Z,5.80
2018-06-24T23:32:24.972Z,6.07
2018-06-24T23:34:58.203Z,5.80
2018-06-24T23:37:30.885Z,5.90
2018-06-24T23:40:03.351Z,5.60
2018-06-24T23:42:35.651Z,5.07
2018-06-24T23:45:07.664Z,6.20
2018-06-24T23:47:40.539Z,6.00
2018-06-24T23:50:12.689Z,8.00
2018-06-24T23:52:45.576Z,5.83
2018-06-24T23:55:17.404Z,5.60
2018-06-24T23:57:50.850Z,5.93
